Time;durP1;ratioP1;P1;durP2;ratioP2;P2;SDS_P1;SDS_P2;PMS_P1;PMS_P2;Temp;Humidity;BMP_temperature;BMP_pressure;BME280_temperature;BME280_humidity;BME280_pressure;Samples;Min_cycle;Max_cycle;Signal;HPM_P1;HPM_P2
2023/05/16 00:02:07;;;;;;;11.50;4.32;;;14.50;99.90;;;;;;5051402;28;20448;-66
2023/05/16 00:04:33;;;;;;;12.10;5.13;;;14.50;99.90;;;;;;5051455;28;20028;-65
2023/05/16 00:06:59;;;;;;;11.55;4.43;;;14.40;99.90;;;;;;5051366;28;20393;-66
2023/05/16 00:09:24;;;;;;;12.77;4.45;;;14.40;99.90;;;;;;5051021;28;20098;-65
2023/05/16 00:11:50;;;;;;;11.05;4.60;;;14.40;99.90;;;;;;5051229;28;20497;-67
2023/05/16 00:14:15;;;;;;;14.73;5.22;;;14.40;99.90;;;;;;5050962;28;20041;-66
2023/05/16 00:16:41;;;;;;;12.90;4.80;;;14.40;99.90;;;;;;5051156;28;20033;-66
2023/05/16 00:19:07;;;;;;;14.43;5.15;;;14.40;99.90;;;;;;5051071;28;20021;-66
2023/05/16 00:21:33;;;;;;;8.93;4.45;;;14.40;99.90;;;;;;5050958;28;20096;-66
2023/05/16 00:23:58;;;;;;;12.15;4.80;;;14.30;99.90;;;;;;5050910;28;20029;-66
2023/05/16 00:26:25;;;;;;;12.32;5.18;;;14.30;99.90;;;;;;5051033;28;20452;-65
2023/05/16 00:28:50;;;;;;;10.40;4.55;;;14.30;99.90;;;;;;5051425;28;20039;-66
2023/05/16 00:31:16;;;;;;;12.45;5.38;;;14.30;99.90;;;;;;5051046;28;20104;-66
2023/05/16 00:33:42;;;;;;;10.70;4.88;;;14.30;99.90;;;;;;5050911;28;20025;-65
2023/05/16 00:36:08;;;;;;;11.70;4.55;;;14.20;99.90;;;;;;5051565;28;20033;-66
2023/05/16 00:38:34;;;;;;;12.90;4.90;;;14.20;99.90;;;;;;5050723;28;20029;-66
2023/05/16 00:41:00;;;;;;;10.50;4.90;;;14.20;99.90;;;;;;5050817;28;20036;-65
2023/05/16 00:43:25;;;;;;;9.65;4.20;;;14.20;99.90;;;;;;5051004;28;20021;-66
2023/05/16 00:45:51;;;;;;;9.75;4.70;;;14.20;99.90;;;;;;5051286;28;20048;-65
2023/05/16 00:48:17;;;;;;;10.88;4.45;;;14.20;99.90;;;;;;5054611;28;20056;-66
2023/05/16 00:50:43;;;;;;;10.65;4.78;;;14.20;99.90;;;;;;5055170;28;20442;-66
2023/05/16 00:53:09;;;;;;;8.82;4.80;;;14.20;99.90;;;;;;5054448;28;20029;-66
2023/05/16 00:55:36;;;;;;;9.23;4.80;;;14.20;99.90;;;;;;5054699;28;20043;-66
2023/05/16 00:58:03;;;;;;;10.70;4.90;;;14.20;99.90;;;;;;5054875;28;20068;-66
2023/05/16 01:00:29;;;;;;;11.50;4.90;;;14.10;99.90;;;;;;5054709;28;20401;-66
2023/05/16 01:02:55;;;;;;;9.48;4.40;;;14.10;99.90;;;;;;5054768;28;20035;-66
2023/05/16 01:05:21;;;;;;;9.35;4.35;;;14.10;99.90;;;;;;5054476;28;20052;-66
2023/05/16 01:07:47;;;;;;;8.48;4.97;;;14.20;99.90;;;;;;5054274;28;20057;-65
2023/05/16 01:10:12;;;;;;;7.70;4.60;;;14.10;99.90;;;;;;5054481;28;20405;-66
2023/05/16 01:13:12;;;;;;;6.95;4.70;;;14.10;99.90;;;;;;5054293;28;20044;-66
2023/05/16 01:15:58;;;;;;;6.80;4.70;;;14.20;99.90;;;;;;5052801;28;20418;-66
2023/05/16 01:18:41;;;;;;;7.07;4.53;;;14.00;99.90;;;;;;5054425;28;20071;-66
2023/05/16 01:21:16;;;;;;;7.77;4.43;;;14.10;99.90;;;;;;5054460;28;20033;-66
2023/05/16 01:23:59;;;;;;;6.88;4.70;;;14.10;99.90;;;;;;5054324;28;20099;-66
2023/05/16 01:26:27;;;;;;;5.95;4.60;;;14.10;99.90;;;;;;5054563;28;20471;-66
2023/05/16 01:28:53;;;;;;;7.10;4.63;;;14.00;99.90;;;;;;5054277;28;20448;-65
2023/05/16 01:31:20;;;;;;;5.90;4.70;;;14.00;99.90;;;;;;5054206;28;20027;-66
2023/05/16 01:33:47;;;;;;;8.90;4.90;;;14.00;99.90;;;;;;5054187;28;20025;-65
2023/05/16 01:36:19;;;;;;;8.55;4.68;;;14.00;99.90;;;;;;5053995;28;20029;-66
2023/05/16 01:38:47;;;;;;;7.18;4.55;;;14.00;99.90;;;;;;5054102;28;20112;-65
2023/05/16 01:41:29;;;;;;;7.70;4.10;;;14.00;99.90;;;;;;5053997;28;20103;-66
2023/05/16 01:44:03;;;;;;;6.00;4.50;;;14.00;99.90;;;;;;5054012;28;20025;-66
2023/05/16 01:46:36;;;;;;;5.85;4.60;;;14.00;99.90;;;;;;5053789;28;20033;-65
2023/05/16 01:49:30;;;;;;;8.45;4.43;;;13.90;99.90;;;;;;5053874;28;20078;-65
2023/05/16 01:52:04;;;;;;;5.95;4.70;;;13.90;99.90;;;;;;5053677;28;20025;-65
2023/05/16 01:54:32;;;;;;;5.65;4.72;;;13.90;99.90;;;;;;5053938;28;20060;-65
2023/05/16 01:56:59;;;;;;;4.70;4.30;;;13.90;99.90;;;;;;5053704;28;20493;-66
2023/05/16 01:59:27;;;;;;;5.10;4.60;;;13.90;99.90;;;;;;5052774;28;20051;-66
2023/05/16 02:01:54;;;;;;;6.10;5.07;;;13.90;99.90;;;;;;5053395;28;20039;-66
2023/05/16 02:04:20;;;;;;;6.20;4.60;;;13.80;99.90;;;;;;5053338;28;20021;-66
2023/05/16 02:06:45;;;;;;;5.20;4.25;;;13.80;99.90;;;;;;5053277;28;20536;-66
2023/05/16 02:09:11;;;;;;;6.05;4.65;;;13.80;99.90;;;;;;5053282;28;20047;-66
2023/05/16 02:11:37;;;;;;;5.07;4.35;;;13.70;99.90;;;;;;5053527;28;20401;-66
2023/05/16 02:14:02;;;;;;;5.93;4.80;;;13.70;99.90;;;;;;5053590;28;20532;-66
2023/05/16 02:16:30;;;;;;;5.43;4.85;;;13.60;99.90;;;;;;5053370;28;20037;-65
2023/05/16 02:18:56;;;;;;;4.93;4.53;;;13.60;99.90;;;;;;5053173;28;20029;-66
2023/05/16 02:21:21;;;;;;;5.95;5.00;;;13.60;99.90;;;;;;5053208;28;20371;-66
2023/05/16 02:23:47;;;;;;;5.75;4.65;;;13.60;99.90;;;;;;5053144;28;20486;-66
2023/05/16 02:26:13;;;;;;;6.93;4.82;;;13.60;99.90;;;;;;5052975;28;20029;-65
2023/05/16 02:28:39;;;;;;;5.30;4.80;;;13.60;99.90;;;;;;5053320;28;20021;-65
2023/05/16 02:31:04;;;;;;;7.30;5.10;;;13.50;99.90;;;;;;5053076;28;20031;-65
2023/05/16 02:33:30;;;;;;;7.75;4.70;;;13.50;99.90;;;;;;5053070;28;20056;-65
2023/05/16 02:35:56;;;;;;;7.53;5.00;;;13.50;99.90;;;;;;5052576;28;20025;-65
2023/05/16 02:38:21;;;;;;;6.30;5.07;;;13.50;99.90;;;;;;5052734;28;20013;-66
2023/05/16 02:40:47;;;;;;;8.73;5.20;;;13.40;99.90;;;;;;5053116;28;20029;-66
2023/05/16 02:43:13;;;;;;;5.63;4.90;;;13.40;99.90;;;;;;5053003;28;20032;-66
2023/05/16 02:45:39;;;;;;;5.00;4.50;;;13.30;99.90;;;;;;5053307;28;20027;-65
2023/05/16 02:48:05;;;;;;;7.88;5.05;;;13.20;99.90;;;;;;5052951;28;20086;-66
2023/05/16 02:50:31;;;;;;;7.38;5.00;;;13.30;99.90;;;;;;5052331;28;20039;-66
2023/05/16 02:52:58;;;;;;;7.20;5.18;;;13.30;99.90;;;;;;5052862;28;20029;-66
2023/05/16 02:55:25;;;;;;;7.25;5.30;;;13.20;99.90;;;;;;5052346;28;20040;-64
2023/05/16 02:57:51;;;;;;;8.38;4.78;;;13.10;99.90;;;;;;5052640;28;20040;-66
2023/05/16 03:00:17;;;;;;;5.82;4.90;;;13.20;99.90;;;;;;5052594;28;20082;-65
2023/05/16 03:02:44;;;;;;;5.50;4.93;;;13.10;99.90;;;;;;5052706;28;20017;-65
2023/05/16 03:05:10;;;;;;;5.65;4.63;;;13.10;99.90;;;;;;5052108;28;20043;-65
2023/05/16 03:07:37;;;;;;;6.47;4.90;;;13.00;99.90;;;;;;5052441;28;20371;-66
2023/05/16 03:10:03;;;;;;;5.60;4.90;;;13.00;99.90;;;;;;5052245;28;20078;-65
2023/05/16 03:12:29;;;;;;;7.00;4.78;;;13.00;99.90;;;;;;5052287;28;20041;-66
2023/05/16 03:14:55;;;;;;;7.20;5.00;;;13.00;99.90;;;;;;5052475;28;20060;-66
2023/05/16 03:17:20;;;;;;;7.15;4.82;;;12.90;99.90;;;;;;5052085;28;20036;-65
2023/05/16 03:19:46;;;;;;;7.63;4.88;;;13.00;99.90;;;;;;5051943;28;20035;-65
2023/05/16 03:22:12;;;;;;;6.18;4.55;;;12.90;99.90;;;;;;5052393;28;20025;-66
2023/05/16 03:24:37;;;;;;;6.75;4.53;;;12.90;99.90;;;;;;5052391;28;20021;-65
2023/05/16 03:27:04;;;;;;;5.03;4.35;;;12.90;99.90;;;;;;5051939;28;20029;-65
2023/05/16 03:29:30;;;;;;;7.22;4.35;;;12.90;99.90;;;;;;5051999;28;20029;-66
2023/05/16 03:31:56;;;;;;;7.95;4.30;;;12.90;99.90;;;;;;5051748;28;20433;-66
2023/05/16 03:34:21;;;;;;;8.48;4.50;;;12.80;99.90;;;;;;5051387;28;20825;-66
2023/05/16 03:36:49;;;;;;;6.05;4.40;;;12.80;99.90;;;;;;5051771;28;20025;-64
2023/05/16 03:39:16;;;;;;;6.05;4.80;;;12.70;99.90;;;;;;5052171;28;20029;-65
2023/05/16 03:41:42;;;;;;;7.88;4.20;;;12.70;99.90;;;;;;5051745;28;20029;-65
2023/05/16 03:44:07;;;;;;;7.22;4.50;;;12.70;99.90;;;;;;5051737;28;20116;-66
2023/05/16 03:46:34;;;;;;;5.63;4.10;;;12.70;99.90;;;;;;5051436;28;20108;-65
2023/05/16 03:49:00;;;;;;;7.43;4.45;;;12.60;99.90;;;;;;5051267;28;20099;-65
2023/05/16 03:51:27;;;;;;;4.43;3.75;;;12.60;99.90;;;;;;5051758;28;20025;-65
2023/05/16 03:53:53;;;;;;;5.70;3.90;;;12.60;99.90;;;;;;5051893;28;20916;-65
2023/05/16 03:56:18;;;;;;;5.20;3.90;;;12.60;99.90;;;;;;5051199;28;20482;-66
2023/05/16 03:58:44;;;;;;;6.22;4.43;;;12.50;99.90;;;;;;5051479;28;20032;-65
2023/05/16 04:01:10;;;;;;;4.95;3.80;;;12.50;99.90;;;;;;5051228;28;20033;-65
2023/05/16 04:03:37;;;;;;;7.50;3.70;;;12.50;99.90;;;;;;5051080;28;20036;-66
2023/05/16 04:06:03;;;;;;;6.32;3.58;;;12.50;99.90;;;;;;5051293;28;20036;-65
2023/05/16 04:08:28;;;;;;;6.07;3.97;;;12.40;99.90;;;;;;5051387;28;20040;-65
2023/05/16 04:10:54;;;;;;;8.30;4.10;;;12.50;99.90;;;;;;5051407;28;20398;-65
2023/05/16 04:13:20;;;;;;;6.97;3.65;;;12.50;99.90;;;;;;5051003;28;20056;-66
2023/05/16 04:15:46;;;;;;;8.40;3.63;;;12.50;99.90;;;;;;5051307;28;20029;-65
2023/05/16 04:18:12;;;;;;;5.70;3.50;;;12.40;99.90;;;;;;5050894;28;20021;-65
2023/05/16 04:20:38;;;;;;;6.95;3.45;;;12.40;99.90;;;;;;5051549;28;20032;-65
2023/05/16 04:23:04;;;;;;;5.28;3.30;;;12.40;99.90;;;;;;5050969;28;20025;-65
2023/05/16 04:25:30;;;;;;;5.15;3.30;;;12.40;99.90;;;;;;5051190;28;20100;-66
2023/05/16 04:27:56;;;;;;;6.55;3.28;;;12.40;99.90;;;;;;5051191;28;20096;-65
2023/05/16 04:30:21;;;;;;;5.65;3.15;;;12.40;99.90;;;;;;5050664;28;20490;-66
2023/05/16 04:32:47;;;;;;;6.03;2.90;;;12.30;99.90;;;;;;5051201;28;20025;-65
2023/05/16 04:35:13;;;;;;;5.82;2.80;;;12.30;99.90;;;;;;5051065;28;20037;-65
2023/05/16 04:37:38;;;;;;;7.35;2.90;;;12.40;99.90;;;;;;5050970;28;20051;-66
2023/05/16 04:40:06;;;;;;;5.72;3.10;;;12.40;99.90;;;;;;5051006;28;20025;-65
2023/05/16 04:42:32;;;;;;;6.80;3.10;;;12.30;99.90;;;;;;5050766;28;20082;-66
2023/05/16 04:44:58;;;;;;;6.10;3.03;;;12.30;99.90;;;;;;5050669;28;20108;-66
2023/05/16 04:47:23;;;;;;;6.28;3.05;;;12.30;99.90;;;;;;5050973;28;20029;-65
2023/05/16 04:49:49;;;;;;;5.43;3.00;;;12.30;99.90;;;;;;5050917;28;20025;-65
2023/05/16 04:52:15;;;;;;;7.85;3.15;;;12.30;99.90;;;;;;5051087;28;20043;-65
2023/05/16 04:54:41;;;;;;;6.88;2.83;;;12.20;99.90;;;;;;5051047;28;20413;-65
2023/05/16 04:57:07;;;;;;;6.43;3.28;;;12.20;99.90;;;;;;5050665;28;20032;-65
2023/05/16 04:59:32;;;;;;;5.88;2.90;;;12.20;99.90;;;;;;5050473;28;20025;-65
2023/05/16 05:01:58;;;;;;;5.88;2.90;;;12.20;99.90;;;;;;5050815;28;20099;-66
2023/05/16 05:04:24;;;;;;;8.07;3.20;;;12.20;99.90;;;;;;5050840;28;20021;-66
2023/05/16 05:06:49;;;;;;;7.13;2.97;;;12.20;99.90;;;;;;5051023;28;20033;-65
2023/05/16 05:09:16;;;;;;;6.88;2.70;;;12.20;99.90;;;;;;5050585;28;20517;-65
2023/05/16 05:11:41;;;;;;;7.53;2.80;;;12.10;99.90;;;;;;5050740;28;20108;-65
2023/05/16 05:14:07;;;;;;;8.30;3.20;;;12.20;99.90;;;;;;5049010;28;20132;-65
2023/05/16 05:16:33;;;;;;;5.55;2.58;;;12.10;99.90;;;;;;5050521;28;20033;-65
2023/05/16 05:18:59;;;;;;;5.68;2.63;;;12.10;99.90;;;;;;5050208;28;20025;-66
2023/05/16 05:21:25;;;;;;;5.70;2.92;;;12.00;99.90;;;;;;5050693;28;20406;-65
2023/05/16 05:23:51;;;;;;;10.07;2.60;;;12.00;99.90;;;;;;5050460;28;20371;-65
2023/05/16 05:26:17;;;;;;;7.30;2.90;;;12.00;99.90;;;;;;5050465;28;20040;-65
2023/05/16 05:28:43;;;;;;;9.95;2.72;;;12.00;99.90;;;;;;5050248;28;20032;-65
2023/05/16 05:31:08;;;;;;;8.65;2.70;;;12.00;99.90;;;;;;5050629;28;20390;-65
2023/05/16 05:33:34;;;;;;;5.97;2.63;;;12.00;99.90;;;;;;5051394;28;20025;-64
2023/05/16 05:36:00;;;;;;;7.47;2.50;;;11.90;99.90;;;;;;5053961;28;20037;-65
2023/05/16 05:38:25;;;;;;;6.40;2.80;;;11.90;99.90;;;;;;5054412;28;20036;-65
2023/05/16 05:40:51;;;;;;;9.23;2.63;;;12.00;99.90;;;;;;5053988;28;20032;-65
2023/05/16 05:43:17;;;;;;;4.68;2.55;;;11.90;99.90;;;;;;5053850;28;20032;-65
2023/05/16 05:45:43;;;;;;;7.40;2.78;;;11.90;99.90;;;;;;5053991;28;20520;-65
2023/05/16 05:48:09;;;;;;;9.15;3.13;;;11.90;99.90;;;;;;5054058;28;20036;-65
2023/05/16 05:50:36;;;;;;;9.07;3.45;;;11.90;99.90;;;;;;5054235;28;20047;-65
2023/05/16 05:53:02;;;;;;;8.00;2.90;;;11.90;99.90;;;;;;5053560;28;20029;-66
2023/05/16 05:55:28;;;;;;;7.22;3.00;;;12.00;99.90;;;;;;5053789;28;20036;-64
2023/05/16 05:57:54;;;;;;;5.97;3.33;;;11.90;99.90;;;;;;5053149;28;20032;-66
2023/05/16 06:00:20;;;;;;;6.97;2.90;;;11.90;99.90;;;;;;5053100;28;20025;-65
2023/05/16 06:02:47;;;;;;;7.15;2.90;;;11.90;99.90;;;;;;5053669;28;20075;-65
2023/05/16 06:05:13;;;;;;;9.70;3.15;;;12.00;99.90;;;;;;5053629;28;20056;-65
2023/05/16 06:07:38;;;;;;;7.82;3.25;;;12.00;99.90;;;;;;5053509;28;20052;-65
2023/05/16 06:10:07;;;;;;;7.93;3.20;;;12.00;99.90;;;;;;5053318;28;20494;-64
2023/05/16 06:12:33;;;;;;;11.63;3.40;;;12.00;99.90;;;;;;5052852;28;20537;-65
2023/05/16 06:14:58;;;;;;;9.93;3.63;;;12.00;99.90;;;;;;5053266;28;20041;-65
2023/05/16 06:17:24;;;;;;;10.75;3.45;;;12.00;99.90;;;;;;5053420;28;20025;-65
2023/05/16 06:19:50;;;;;;;8.93;3.97;;;12.00;99.90;;;;;;5053119;28;20031;-65
2023/05/16 06:22:16;;;;;;;7.97;3.85;;;12.10;99.90;;;;;;5053631;28;20039;-64
2023/05/16 06:24:41;;;;;;;8.48;3.70;;;12.00;99.90;;;;;;5053099;28;20022;-65
2023/05/16 06:27:07;;;;;;;8.48;3.55;;;12.00;99.90;;;;;;5052793;28;20115;-65
2023/05/16 06:29:33;;;;;;;9.43;4.20;;;12.00;99.90;;;;;;5053489;28;20066;-65
2023/05/16 06:31:59;;;;;;;9.38;4.20;;;12.00;99.90;;;;;;5052994;28;20478;-65
2023/05/16 06:34:27;;;;;;;8.20;3.65;;;12.10;99.90;;;;;;5053112;28;20438;-65
2023/05/16 06:36:53;;;;;;;8.05;4.32;;;12.10;99.90;;;;;;5052921;28;20025;-65
2023/05/16 06:39:19;;;;;;;10.80;4.03;;;12.10;99.90;;;;;;5052887;28;20017;-65
2023/05/16 06:41:45;;;;;;;9.07;4.15;;;12.20;99.90;;;;;;5052602;28;20017;-65
2023/05/16 06:44:11;;;;;;;8.70;3.65;;;12.20;99.90;;;;;;5052507;28;20039;-65
2023/05/16 06:46:37;;;;;;;8.75;3.92;;;12.30;99.90;;;;;;5053045;28;20040;-65
2023/05/16 06:49:03;;;;;;;8.35;4.28;;;12.30;99.90;;;;;;5053060;28;20506;-65
2023/05/16 06:51:29;;;;;;;12.48;4.40;;;12.30;99.90;;;;;;5052309;28;20036;-64
2023/05/16 06:53:56;;;;;;;9.80;3.97;;;12.30;99.90;;;;;;5052517;28;20029;-65
2023/05/16 06:56:22;;;;;;;10.52;4.00;;;12.40;99.90;;;;;;5051654;28;20078;-65
2023/05/16 06:58:48;;;;;;;9.85;3.97;;;12.40;99.90;;;;;;5052628;28;20060;-65
2023/05/16 07:01:14;;;;;;;7.00;3.65;;;12.40;99.90;;;;;;5052832;28;20059;-65
2023/05/16 07:03:40;;;;;;;12.63;4.00;;;12.50;99.90;;;;;;5052392;28;20025;-66
2023/05/16 07:06:06;;;;;;;10.95;4.20;;;12.50;99.90;;;;;;5052546;28;20031;-65
2023/05/16 07:08:32;;;;;;;9.73;3.75;;;12.60;99.90;;;;;;5052461;28;20025;-65
2023/05/16 07:10:57;;;;;;;8.30;3.60;;;12.50;99.90;;;;;;5051862;28;20039;-65
2023/05/16 07:13:23;;;;;;;7.55;3.58;;;12.60;99.90;;;;;;5052085;28;20045;-65
2023/05/16 07:15:49;;;;;;;9.75;3.60;;;12.70;99.90;;;;;;5052106;28;20068;-65
2023/05/16 07:18:14;;;;;;;7.63;3.72;;;12.70;99.90;;;;;;5052189;28;20036;-65
2023/05/16 07:20:40;;;;;;;8.68;3.70;;;12.70;99.90;;;;;;5052433;28;20028;-65
2023/05/16 07:23:06;;;;;;;8.77;3.63;;;12.70;99.90;;;;;;5051949;28;20017;-65
2023/05/16 07:25:31;;;;;;;8.80;3.65;;;12.80;99.90;;;;;;5051603;28;20729;-65
2023/05/16 07:27:57;;;;;;;7.55;3.45;;;12.90;99.90;;;;;;5052092;28;20063;-65
2023/05/16 07:30:23;;;;;;;12.20;3.90;;;12.90;99.90;;;;;;5051918;28;20017;-65
2023/05/16 07:32:49;;;;;;;9.18;3.42;;;12.90;99.90;;;;;;5052361;28;20036;-66
2023/05/16 07:35:14;;;;;;;11.15;3.40;;;12.90;99.90;;;;;;5051787;28;20114;-65
2023/05/16 07:37:42;;;;;;;7.03;3.40;;;12.90;99.90;;;;;;5051733;28;20039;-65
2023/05/16 07:40:09;;;;;;;7.22;3.40;;;13.00;99.90;;;;;;5051550;28;20037;-65
2023/05/16 07:42:34;;;;;;;7.80;3.50;;;12.90;99.90;;;;;;5052068;28;20028;-65
2023/05/16 07:45:01;;;;;;;7.78;3.30;;;13.00;99.90;;;;;;5051759;28;20489;-65
2023/05/16 07:47:27;;;;;;;8.85;3.55;;;13.00;99.90;;;;;;5049802;28;20033;-65
2023/05/16 07:49:52;;;;;;;8.75;3.40;;;13.10;99.90;;;;;;5050316;28;20059;-65
2023/05/16 07:52:18;;;;;;;8.93;3.60;;;13.10;99.90;;;;;;5050925;28;20029;-65
2023/05/16 07:54:46;;;;;;;10.68;3.58;;;13.20;99.90;;;;;;5050268;28;20029;-65
2023/05/16 07:57:16;;;;;;;6.43;3.25;;;13.20;99.90;;;;;;5050526;28;20035;-65
2023/05/16 07:59:43;;;;;;;7.32;3.00;;;13.30;99.90;;;;;;5051415;28;20021;-64
2023/05/16 08:02:10;;;;;;;8.18;3.40;;;13.40;99.90;;;;;;5051787;28;20029;-66
2023/05/16 08:04:36;;;;;;;7.35;3.20;;;13.50;99.90;;;;;;5051422;28;20444;-65
2023/05/16 08:07:02;;;;;;;9.23;3.58;;;13.70;99.90;;;;;;5051228;28;20079;-66
2023/05/16 08:09:28;;;;;;;7.20;3.60;;;13.90;99.90;;;;;;5050927;28;20037;-66
2023/05/16 08:11:53;;;;;;;7.55;3.55;;;13.90;99.90;;;;;;5051630;28;20029;-65
2023/05/16 08:14:19;;;;;;;9.95;3.55;;;14.00;99.90;;;;;;5050950;28;20566;-66
2023/05/16 08:16:46;;;;;;;9.52;3.30;;;14.00;99.90;;;;;;5051270;28;20052;-66
2023/05/16 08:19:12;;;;;;;9.68;3.22;;;14.00;99.90;;;;;;5051119;28;20033;-64
2023/05/16 08:21:37;;;;;;;153.45;14.25;;;14.10;99.90;;;;;;5051027;28;20036;-63
2023/05/16 08:24:04;;;;;;;14.20;3.63;;;14.20;99.90;;;;;;5050776;28;20036;-64
2023/05/16 08:26:31;;;;;;;10.45;3.20;;;14.20;99.90;;;;;;5051397;28;20052;-64
2023/05/16 08:28:56;;;;;;;8.63;3.28;;;14.00;99.90;;;;;;5050064;28;20532;-65
2023/05/16 08:31:22;;;;;;;9.80;2.83;;;14.00;99.90;;;;;;5050496;28;20029;-64
2023/05/16 08:33:48;;;;;;;8.27;3.45;;;14.00;99.90;;;;;;5050828;28;20028;-64
2023/05/16 08:36:14;;;;;;;8.02;3.05;;;14.10;99.90;;;;;;5049465;28;20044;-64
2023/05/16 08:38:40;;;;;;;5.30;2.67;;;14.30;99.90;;;;;;5050699;28;20028;-65
2023/05/16 08:41:06;;;;;;;6.43;2.53;;;14.30;99.90;;;;;;5051058;28;20030;-64
2023/05/16 08:43:33;;;;;;;5.00;2.50;;;14.30;99.90;;;;;;5050805;28;20405;-65
2023/05/16 08:45:59;;;;;;;7.22;2.20;;;14.20;99.90;;;;;;5051200;28;20028;-64
2023/05/16 08:48:27;;;;;;;8.13;2.67;;;14.20;99.90;;;;;;5050541;28;20025;-65
2023/05/16 08:50:53;;;;;;;7.55;2.60;;;14.40;99.90;;;;;;5050374;28;20021;-65
2023/05/16 08:53:29;;;;;;;6.35;2.60;;;14.60;99.90;;;;;;5050156;28;20025;-64
2023/05/16 08:55:56;;;;;;;7.50;2.45;;;14.70;99.90;;;;;;5050724;28;20044;-65
2023/05/16 08:58:22;;;;;;;7.57;2.22;;;14.60;99.90;;;;;;5051224;28;20116;-64
2023/05/16 09:00:48;;;;;;;5.22;2.20;;;14.60;99.90;;;;;;5050978;28;20124;-65
2023/05/16 09:03:13;;;;;;;6.07;2.10;;;14.60;99.90;;;;;;5050921;28;20371;-65
2023/05/16 09:05:40;;;;;;;5.63;2.47;;;14.60;99.90;;;;;;5050589;28;20039;-65
2023/05/16 09:08:06;;;;;;;5.25;1.90;;;14.80;99.90;;;;;;5052424;28;20025;-65
2023/05/16 09:10:31;;;;;;;4.72;1.98;;;14.90;99.90;;;;;;5054552;28;20033;-65
2023/05/16 09:12:57;;;;;;;6.35;2.15;;;14.90;99.90;;;;;;5054381;28;20045;-65
2023/05/16 09:15:30;;;;;;;4.45;1.70;;;14.90;99.90;;;;;;5054719;28;20045;-65
2023/05/16 09:17:58;;;;;;;4.68;2.13;;;14.90;99.90;;;;;;5054952;28;20045;-64
2023/05/16 09:20:25;;;;;;;3.65;1.73;;;14.90;99.90;;;;;;5054261;28;20503;-65
2023/05/16 09:22:58;;;;;;;5.15;1.83;;;15.00;99.90;;;;;;5054603;28;20095;-65
2023/05/16 09:25:29;;;;;;;3.80;1.60;;;15.10;99.90;;;;;;5054337;28;20057;-65
2023/05/16 09:27:56;;;;;;;3.55;1.70;;;15.20;99.90;;;;;;5054408;28;20029;-65
2023/05/16 09:30:26;;;;;;;6.43;1.80;;;15.30;99.90;;;;;;5054322;28;20043;-65
2023/05/16 09:32:52;;;;;;;6.15;2.30;;;15.40;99.90;;;;;;5054033;28;20029;-65
2023/05/16 09:35:19;;;;;;;4.32;1.80;;;15.40;99.90;;;;;;5053924;28;20041;-65
2023/05/16 09:37:47;;;;;;;4.22;1.73;;;15.40;99.90;;;;;;5053944;28;20067;-65
2023/05/16 09:40:13;;;;;;;6.57;2.00;;;15.30;99.90;;;;;;5054391;28;20032;-64
2023/05/16 09:42:39;;;;;;;4.13;1.88;;;15.30;99.90;;;;;;5054060;28;20485;-64
2023/05/16 09:45:05;;;;;;;4.88;1.85;;;15.50;99.90;;;;;;5054062;28;20028;-64
2023/05/16 09:47:31;;;;;;;5.75;1.77;;;15.70;99.90;;;;;;5053679;28;20031;-63
2023/05/16 09:49:57;;;;;;;3.42;1.80;;;15.60;99.90;;;;;;5052220;28;20172;-62
2023/05/16 09:52:26;;;;;;;4.10;1.85;;;15.80;99.90;;;;;;5053255;28;20115;-63
2023/05/16 09:54:53;;;;;;;4.32;1.75;;;15.90;99.90;;;;;;5053349;28;20047;-63
2023/05/16 09:57:25;;;;;;;3.75;1.67;;;16.00;99.90;;;;;;5053890;28;20017;-62
2023/05/16 09:59:51;;;;;;;11.32;2.03;;;15.80;99.90;;;;;;5053689;28;20082;-64
2023/05/16 10:02:18;;;;;;;3.78;1.75;;;15.80;99.90;;;;;;5053421;28;20021;-62
2023/05/16 10:04:44;;;;;;;4.65;1.77;;;16.10;99.90;;;;;;5053250;28;20109;-65
2023/05/16 10:07:12;;;;;;;4.38;1.83;;;16.20;99.90;;;;;;5053353;28;20100;-65
2023/05/16 10:09:39;;;;;;;4.78;2.22;;;16.40;99.90;;;;;;5053403;28;20494;-64
2023/05/16 10:12:07;;;;;;;6.68;2.53;;;16.40;99.90;;;;;;5053084;28;20040;-64
2023/05/16 10:14:35;;;;;;;4.75;2.10;;;16.60;99.90;;;;;;5052602;28;20025;-65
2023/05/16 10:17:04;;;;;;;4.22;1.70;;;16.50;99.90;;;;;;5053435;28;20413;-64
2023/05/16 10:19:31;;;;;;;4.70;2.05;;;16.40;99.90;;;;;;5052309;28;20033;-64
2023/05/16 10:21:59;;;;;;;6.20;2.42;;;16.40;99.90;;;;;;5053400;28;20558;-65
2023/05/16 10:24:32;;;;;;;5.05;1.80;;;16.60;99.90;;;;;;5053462;28;20029;-64
2023/05/16 10:26:58;;;;;;;2.97;1.83;;;16.40;99.90;;;;;;5053261;28;20421;-64
2023/05/16 10:29:24;;;;;;;2.55;1.70;;;16.40;99.90;;;;;;5052958;28;20044;-64
2023/05/16 10:31:50;;;;;;;3.75;1.58;;;16.40;99.90;;;;;;5053295;28;20033;-64
2023/05/16 10:34:17;;;;;;;6.15;1.70;;;16.40;99.90;;;;;;5052748;28;20460;-64
2023/05/16 10:36:45;;;;;;;2.65;1.42;;;16.70;99.90;;;;;;5052991;28;20409;-65
2023/05/16 10:39:11;;;;;;;3.35;1.67;;;16.70;99.90;;;;;;5046835;28;20033;-64
2023/05/16 10:41:37;;;;;;;3.42;1.55;;;16.90;99.90;;;;;;5033096;28;20033;-64
2023/05/16 10:44:11;;;;;;;3.15;1.52;;;16.90;99.90;;;;;;5051068;28;20104;-64
2023/05/16 10:46:37;;;;;;;3.33;1.50;;;16.80;99.90;;;;;;5053137;28;20083;-64
2023/05/16 10:49:18;;;;;;;2.53;1.50;;;16.90;99.90;;;;;;5052393;28;20063;-64
2023/05/16 10:51:44;;;;;;;3.45;1.42;;;17.20;99.90;;;;;;5052724;28;20021;-65
2023/05/16 10:54:14;;;;;;;3.33;1.48;;;17.20;99.90;;;;;;5052453;28;20456;-64
2023/05/16 10:56:40;;;;;;;4.30;1.67;;;17.20;99.90;;;;;;5052684;28;20029;-65
2023/05/16 10:59:23;;;;;;;3.75;1.77;;;17.30;99.90;;;;;;5052614;28;20025;-66
2023/05/16 11:01:52;;;;;;;5.15;2.00;;;17.00;99.90;;;;;;5052593;28;20025;-65
2023/05/16 11:04:18;;;;;;;2.80;1.77;;;17.00;99.90;;;;;;5052285;28;20163;-65
2023/05/16 11:06:48;;;;;;;3.70;1.88;;;17.30;99.90;;;;;;5052575;28;20116;-64
2023/05/16 11:09:26;;;;;;;2.60;1.50;;;17.30;99.90;;;;;;5052375;28;20035;-65
2023/05/16 11:11:51;;;;;;;3.45;1.50;;;17.20;99.90;;;;;;5052313;28;20036;-64
2023/05/16 11:14:38;;;;;;;2.75;1.40;;;17.10;99.90;;;;;;5052311;28;20052;-65
2023/05/16 11:17:21;;;;;;;3.67;1.83;;;17.20;99.90;;;;;;5051921;28;20065;-65
2023/05/16 11:19:51;;;;;;;5.07;1.80;;;17.20;99.90;;;;;;5052489;28;20172;-65
2023/05/16 11:22:25;;;;;;;4.68;1.80;;;17.10;99.90;;;;;;5052179;28;20037;-66
2023/05/16 11:25:04;;;;;;;2.60;1.60;;;17.20;99.90;;;;;;5052088;28;20405;-66
2023/05/16 11:27:32;;;;;;;2.83;1.60;;;17.30;99.90;;;;;;5051925;28;20555;-66
2023/05/16 11:30:14;;;;;;;3.63;1.77;;;17.30;99.90;;;;;;5052296;28;20086;-66
2023/05/16 11:32:42;;;;;;;3.58;1.55;;;17.40;99.90;;;;;;5050966;28;20485;-66
2023/05/16 11:35:10;;;;;;;4.30;1.60;;;17.50;99.90;;;;;;5051821;28;20037;-66
2023/05/16 11:37:38;;;;;;;5.80;1.90;;;17.70;99.90;;;;;;5051894;28;20017;-66
2023/05/16 11:40:05;;;;;;;3.90;1.65;;;17.70;99.90;;;;;;5051855;28;20033;-66
2023/05/16 11:42:40;;;;;;;4.32;1.60;;;17.10;99.90;;;;;;5052168;28;20086;-66
2023/05/16 11:45:24;;;;;;;6.82;1.70;;;16.90;99.90;;;;;;5051668;28;20049;-66
2023/05/16 11:47:49;;;;;;;;;;;17.30;99.90;;;;;;5052268;28;20029;-66
2023/05/16 11:50:22;;;;;;;3.25;1.58;;;17.50;99.90;;;;;;5051694;28;19909;-66
2023/05/16 11:52:52;;;;;;;6.30;1.60;;;17.50;99.90;;;;;;5051777;28;20441;-66
2023/05/16 11:55:22;;;;;;;4.13;1.80;;;17.60;99.90;;;;;;5051586;28;20079;-66
2023/05/16 11:57:50;;;;;;;4.68;1.85;;;17.80;99.90;;;;;;5051467;28;20033;-66
2023/05/16 12:00:20;;;;;;;6.05;1.83;;;18.00;99.90;;;;;;5051327;28;20494;-66
2023/05/16 12:02:48;;;;;;;5.53;1.63;;;18.00;99.90;;;;;;5051809;28;20025;-66
2023/05/16 12:05:15;;;;;;;4.28;1.67;;;18.10;99.90;;;;;;5051479;28;20017;-66
2023/05/16 12:07:45;;;;;;;4.55;1.60;;;18.30;99.90;;;;;;5051366;28;20067;-66
2023/05/16 12:10:13;;;;;;;4.18;1.63;;;18.40;99.90;;;;;;5051336;28;20021;-66
2023/05/16 12:12:40;;;;;;;5.07;1.92;;;18.40;99.90;;;;;;5051237;28;20382;-66
2023/05/16 12:15:08;;;;;;;3.72;1.98;;;18.50;99.90;;;;;;5051179;28;20033;-66
2023/05/16 12:17:35;;;;;;;4.85;1.90;;;18.50;99.90;;;;;;5051263;28;20028;-66
2023/05/16 12:20:04;;;;;;;3.38;1.80;;;18.20;99.90;;;;;;5051286;28;20052;-66
2023/05/16 12:22:30;;;;;;;2.95;1.60;;;18.40;99.90;;;;;;5051408;28;20477;-66
2023/05/16 12:24:59;;;;;;;2.72;1.58;;;18.50;99.90;;;;;;5051201;28;20024;-66
2023/05/16 12:27:26;;;;;;;3.97;1.50;;;18.60;99.90;;;;;;5051082;28;20033;-66
2023/05/16 12:29:52;;;;;;;3.30;1.38;;;18.80;99.90;;;;;;5050788;28;20044;-66
2023/05/16 12:32:18;;;;;;;4.72;1.67;;;18.40;99.90;;;;;;5051050;28;20025;-66
2023/05/16 12:34:51;;;;;;;4.50;1.55;;;18.70;99.90;;;;;;5051237;28;20047;-66
2023/05/16 12:37:18;;;;;;;4.43;1.60;;;18.90;99.90;;;;;;5051092;28;20035;-66
2023/05/16 12:39:47;;;;;;;4.63;1.67;;;19.00;99.90;;;;;;5049795;28;20405;-66
2023/05/16 12:42:13;;;;;;;3.25;1.30;;;19.20;99.90;;;;;;5051416;28;20032;-67
2023/05/16 12:44:44;;;;;;;4.47;1.85;;;19.00;99.90;;;;;;5055108;28;20466;-66
2023/05/16 12:47:13;;;;;;;3.83;1.30;;;19.10;99.90;;;;;;5055062;28;20108;-66